Flight Track Log - Related Links

Times and Time Zones

All times are in EDT time to prevent confusion due to time zone crossing. See the UAL752 flight status page for this flight to view local times or setup timezone preferences in your user account.

Time Position Orientation Groundspeed Altitude Reporting Facility
EDT Latitude Longitude Course Direction KTS MPH feet Rate Location/Type
Sat 12:05:46 PM 39.8833 -104.6000 72° East 183 211 6,400  Level Denver TRACON
Sat 12:06:40 PM 39.8833 -104.5333 90° East 225 259 7,200 1,579 Climbing Denver TRACON
Sat 12:07:40 PM 39.8667 -104.4500 105° East 264 304 9,400 2,217 Climbing Denver TRACON
Sat 12:08:00 PM 39.8667 -104.2076 90° East  Level FlightAware
Sat 12:08:12 PM 39.8742 -104.3917 80° East 266 306 10,600  Level Denver Center
Sat 12:09:00 PM 39.8667 -104.0541 90° East  Level FlightAware
Sat 12:09:14 PM 39.8742 -104.2678 90° East 315 362 12,800  Level Denver Center
Sat 12:10:00 PM 39.8667 -103.9007 90° East  Level FlightAware
Sat 12:10:15 PM 39.8736 -104.1511 90° East 323 372 16,500  Level Denver Center
Sat 12:11:00 PM 39.8792 -103.7498 72° East  Level FlightAware
Sat 12:11:29 PM 39.8725 -104.0308 91° East 334 384 18,900  Level Denver Center
Sat 12:12:31 PM 39.8731 -103.8606 90° East 382 440 21,700 2,081 Climbing Denver Center
Sat 12:13:33 PM 39.8853 -103.7139 84° East 395 455 23,200 1,355 Climbing Denver Center
Sat 12:14:35 PM 39.9053 -103.5469 81° East 414 476 24,500 1,210 Climbing Denver Center
Sat 12:15:37 PM 39.9214 -103.3986 82° East 439 505 25,700 1,742 Climbing Denver Center
Sat 12:16:39 PM 39.9414 -103.2264 81° East 434 499 28,100 1,548 Climbing Denver Center
Sat 12:17:41 PM 39.9575 -103.0797 82° East 429 494 28,900 968 Climbing Denver Center
Sat 12:18:43 PM 39.9767 -102.9036 82° East 438 504 30,100 823 Climbing Denver Center
Sat 12:19:45 PM 39.9933 -102.7492 82° East 446 513 30,600 439 Climbing Denver Center
Sat 12:20:46 PM 40.0136 -102.5594 82° East 470 541 31,000 537 Climbing Denver Center
Sat 12:21:48 PM 40.0314 -102.3925 82° East 480 552 31,700 726 Climbing Denver Center
Sat 12:22:50 PM 40.0478 -102.2250 83° East 487 560 32,500 629 Climbing Denver Center
Sat 12:23:52 PM 40.0644 -102.0578 83° East 488 562 33,000 242 Climbing Denver Center
Sat 12:24:54 PM 40.0844 -101.8603 82° East 493 567 33,000  Level Denver Center
Sat 12:25:56 PM 40.1039 -101.6619 83° East 496 571 33,000  Level Denver Center
Sat 12:26:58 PM 40.1214 -101.4922 82° East 495 570 33,000  Level Denver Center
Sat 12:28:00 PM 40.1397 -101.2942 83° East 494 568 33,000 97 Level Denver Center
Sat 12:29:02 PM 40.1561 -101.1231 83° East 497 572 33,200 532 Climbing Denver Center
Sat 12:30:04 PM 40.1742 -100.9250 83° East 494 568 34,100 871 Climbing Denver Center
Sat 12:31:06 PM 40.1869 -100.7592 84° East 484 557 35,000 432 Climbing Denver Center
Sat 12:32:09 PM 40.2011 -100.5706 84° East 471 542 35,000  Level Denver Center
Sat 12:33:11 PM 40.2128 -100.4086 85° East 471 542 35,000  Level Denver Center
Sat 12:34:13 PM 40.2272 -100.2169 84° East 475 547 35,000  Level Denver Center
Sat 12:35:15 PM 40.2389 -100.0517 85° East 479 551 35,000  Level Denver Center
Sat 12:36:17 PM 40.2514 -99.8550 85° East 480 552 35,000  Level Denver Center
Sat 12:37:19 PM 40.2644 -99.6819 84° East 479 551 35,000  Level Denver Center
Sat 12:38:21 PM 40.2761 -99.5075 85° East 481 554 35,000  Level Denver Center
Sat 12:39:23 PM 40.2878 -99.3356 85° East 477 549 35,000  Level Denver Center
Sat 12:40:25 PM 40.2975 -99.1631 86° East 476 548 35,000  Level Denver Center
Sat 12:41:27 PM 40.3106 -98.9603 85° East 468 539 35,000  Level Denver Center
Sat 12:42:36 PM 40.3208 -98.7942 85° East 467 537 35,000  Level Minneapolis Center
Sat 12:43:37 PM 40.3303 -98.6264 86° East 464 534 35,000  Level Minneapolis Center
Sat 12:44:39 PM 40.3419 -98.4253 86° East 464 534 35,000  Level Minneapolis Center
Sat 12:45:41 PM 40.3508 -98.2567 86° East 465 535 35,000  Level Minneapolis Center
Sat 12:46:42 PM 40.3603 -98.0881 86° East 466 536 35,000  Level Minneapolis Center
Sat 12:47:44 PM 40.3686 -97.9172 86° East 470 541 35,000  Level Minneapolis Center
Sat 12:48:45 PM 40.3772 -97.7475 86° East 468 539 35,000  Level Minneapolis Center
Sat 12:49:47 PM 40.3850 -97.5781 86° East 467 537 35,000  Level Minneapolis Center
Sat 12:50:49 PM 40.3947 -97.4092 86° East 466 536 35,000  Level Minneapolis Center
Sat 12:51:50 PM 40.4022 -97.2328 87° East 467 537 35,000  Level Minneapolis Center
Sat 12:52:52 PM 40.4097 -97.0656 87° East 464 534 35,000  Level Minneapolis Center
Sat 12:53:53 PM 40.4194 -96.8636 86° East 464 534 35,000  Level Minneapolis Center
Sat 12:54:55 PM 40.4261 -96.6961 87° East 462 532 35,000  Level Minneapolis Center
Sat 12:55:57 PM 40.4331 -96.5267 87° East 465 535 35,000  Level Minneapolis Center
Sat 12:56:58 PM 40.4386 -96.3581 87° East 464 534 35,000  Level Minneapolis Center
Sat 12:58:00 PM 40.4464 -96.1889 86° East 466 536 35,000  Level Minneapolis Center
Sat 12:59:01 PM 40.4528 -96.0203 87° East 466 536 35,000  Level Minneapolis Center
Sat 01:00:03 PM 40.4583 -95.8489 88° East 470 541 35,000  Level Minneapolis Center
Sat 01:01:05 PM 40.4650 -95.6456 87° East 469 540 35,000  Level Minneapolis Center
Sat 01:02:06 PM 40.4703 -95.4756 88° East 469 540 35,000  Level Minneapolis Center
Sat 01:03:08 PM 40.4758 -95.3058 87° East 468 539 35,000  Level Minneapolis Center
Sat 01:04:22 PM 40.4817 -95.1025 88° East 466 536 35,000  Level Minneapolis Center
Sat 01:05:24 PM 40.4869 -94.9314 88° East 469 540 35,000  Level Minneapolis Center
Sat 01:06:37 PM 40.4928 -94.7583 87° East 473 544 35,000 44 Level Minneapolis Center
Sat 01:07:39 PM 40.4953 -94.5436 89° East 474 545 35,100  Climbing Minneapolis Center
Sat 01:08:41 PM 40.5000 -94.3722 88° East 473 544 35,000 -48 Descending Minneapolis Center
Sat 01:09:43 PM 40.5044 -94.1658 88° East 474 545 35,000  Level Minneapolis Center
Sat 01:10:44 PM 40.5072 -93.9961 89° East 470 541 35,000  Level Minneapolis Center
Sat 01:11:46 PM 40.5094 -93.8278 89° East 466 536 35,000  Level Minneapolis Center
Sat 01:12:48 PM 40.5125 -93.6578 89° East 467 537 35,000  Level Minneapolis Center
Sat 01:13:50 PM 40.5139 -93.4886 89° East 467 537 35,000  Level Minneapolis Center
Sat 01:14:51 PM 40.5161 -93.3181 89° East 468 539 35,000  Level Minneapolis Center
Sat 01:15:53 PM 40.5194 -93.1131 89° East 470 541 35,000  Level Minneapolis Center
Sat 01:16:55 PM 40.5217 -92.9414 89° East 470 541 35,000  Level Minneapolis Center
Sat 01:17:57 PM 40.5233 -92.7703 89° East 469 540 35,000  Level Minneapolis Center
Sat 01:18:58 PM 40.5250 -92.5981 89° East 468 539 35,000  Level Minneapolis Center
Sat 01:20:00 PM 40.5258 -92.4250 90° East 469 540 35,000  Level Minneapolis Center
Sat 01:21:02 PM 40.5256 -92.2550 90° East 466 536 35,000  Level Minneapolis Center
Sat 01:21:26 PM 40.5261 -92.1886 89° East 464 534 35,000  Level Chicago Center
Sat 01:22:14 PM 40.5258 -92.0556 90° East 459 528 35,000  Level Kansas Center
Sat 01:23:16 PM 40.5258 -91.8894 90° East 457 526 35,000  Level Kansas Center
Sat 01:24:17 PM 40.5250 -91.7247 90° East 454 522 35,000  Level Kansas Center
Sat 01:25:19 PM 40.5247 -91.5264 90° East 455 524 35,000  Level Kansas Center
Sat 01:26:21 PM 40.5239 -91.3589 90° East 459 528 35,000  Level Kansas Center
Sat 01:27:23 PM 40.5222 -91.1942 91° East 458 527 35,000  Level Kansas Center
Sat 01:28:25 PM 40.5225 -91.0272 90° East 458 527 35,000  Level Kansas Center
Sat 01:29:27 PM 40.5211 -90.8592 91° East 459 528 35,000  Level Kansas Center
Sat 01:30:29 PM 40.5189 -90.6597 91° East 457 526 35,000  Level Kansas Center
Sat 01:31:31 PM 40.5172 -90.4933 91° East 457 526 35,000  Level Kansas Center
Sat 01:32:33 PM 40.5153 -90.3269 91° East 458 527 35,000  Level Kansas Center
Sat 01:33:34 PM 40.5125 -90.1608 91° East 458 527 35,000  Level Kansas Center
Sat 01:34:36 PM 40.5097 -89.9933 91° East 460 529 35,000  Level Kansas Center
Sat 01:35:38 PM 40.5064 -89.8283 91° East 461 531 35,000  Level Kansas Center
Sat 01:36:40 PM 40.5031 -89.6297 91° East 462 532 35,000  Level Kansas Center
Sat 01:37:42 PM 40.4997 -89.4647 91° East 459 528 35,000  Level Kansas Center
Sat 01:38:44 PM 40.4964 -89.2978 91° East 459 528 35,000  Level Kansas Center
Sat 01:39:46 PM 40.4931 -89.1314 91° East 458 527 35,000  Level Kansas Center
Sat 01:40:48 PM 40.4894 -88.9664 92° East 455 524 35,000  Level Kansas Center
Sat 01:41:50 PM 40.4833 -88.7703 92° East 452 520 35,000  Level Kansas Center
Sat 01:43:04 PM 40.4783 -88.5678 92° East 450 518 35,000  Level Chicago Center
Sat 01:44:05 PM 40.4736 -88.4047 92° East 450 518 35,000  Level Chicago Center
Sat 01:45:07 PM 40.4686 -88.2433 92° East 448 516 35,000  Level Chicago Center
Sat 01:46:09 PM 40.4633 -88.0814 92° East 449 517 35,000  Level Chicago Center
Sat 01:47:11 PM 40.4583 -87.9203 92° East 447 514 35,000  Level Chicago Center
Sat 01:48:12 PM 40.4536 -87.7583 92° East 448 516 35,000  Level Chicago Center
Sat 01:49:14 PM 40.4453 -87.5642 93° East 449 517 35,000  Level Chicago Center
Sat 01:50:16 PM 40.4394 -87.4094 93° East 448 516 35,000  Level Chicago Center
Sat 01:51:18 PM 40.4331 -87.2450 93° East 451 519 35,000  Level Chicago Center
Sat 01:52:19 PM 40.4267 -87.0819 93° East 449 517 35,000  Level Chicago Center
Sat 01:53:21 PM 40.4197 -86.9192 93° East 447 514 35,000  Level Chicago Center
Sat 01:54:23 PM 40.4128 -86.7547 93° East 449 517 35,000  Level Chicago Center
Sat 01:55:24 PM 40.4039 -86.5586 93° East 449 517 35,000  Level Chicago Center
Sat 01:56:26 PM 40.3961 -86.3958 94° East 448 516 35,000  Level Chicago Center
Sat 01:57:28 PM 40.3878 -86.2319 94° East 449 517 35,000  Level Chicago Center
Sat 01:58:29 PM 40.3800 -86.0669 93° East 451 519 35,000  Level Chicago Center
Sat 01:59:31 PM 40.3719 -85.9003 94° East 455 524 35,000  Level Chicago Center
Sat 02:00:33 PM 40.3628 -85.7350 94° East 454 522 35,000  Level Chicago Center
Sat 02:01:34 PM 40.3544 -85.5683 94° East 455 524 35,000  Level Chicago Center
Sat 02:02:36 PM 40.3453 -85.4039 94° East 453 521 35,000  Level Chicago Center
Sat 02:03:04 PM 40.3389 -85.3042 95° East 452 520 35,000  Level Indianapolis Center
Sat 02:04:06 PM 40.3289 -85.1386 94° East 455 524 35,000  Level Indianapolis Center
Sat 02:05:07 PM 40.3200 -84.9736 94° East 455 524 35,000  Level Indianapolis Center
Sat 02:06:08 PM 40.3083 -84.7956 95° East 454 522 35,000 -49 Level Indianapolis Center
Sat 02:07:09 PM 40.2981 -84.6300 95° East 452 520 34,900 -49 Descending Indianapolis Center
Sat 02:08:11 PM 40.2881 -84.4647 94° East 452 520 34,900  Level Indianapolis Center
Sat 02:09:12 PM 40.2767 -84.2975 95° East 456 525 34,900 49 Level Indianapolis Center
Sat 02:10:13 PM 40.2656 -84.1331 95° East 450 518 35,000 49 Climbing Indianapolis Center
Sat 02:11:15 PM 40.2550 -83.9672 95° East 452 520 35,000 -49 Level Indianapolis Center
Sat 02:12:16 PM 40.2431 -83.8011 95° East 453 521 34,900 -49 Descending Indianapolis Center
Sat 02:13:17 PM 40.2317 -83.6347 95° East 452 520 34,900 49 Level Indianapolis Center
Sat 02:14:19 PM 40.2192 -83.4675 96° East 453 521 35,000 49 Climbing Indianapolis Center
Sat 02:15:20 PM 40.2064 -83.2994 96° East 456 525 35,000  Level Indianapolis Center
Sat 02:16:21 PM 40.1894 -83.1333 98° East 455 524 35,000  Level Indianapolis Center
Sat 02:17:23 PM 40.1747 -82.9678 97° East 454 522 35,000 -49 Level Indianapolis Center
Sat 02:18:24 PM 40.1581 -82.8025 97° East 453 521 34,900 -49 Descending Indianapolis Center
Sat 02:19:25 PM 40.1431 -82.6378 97° East 452 520 34,900 49 Level Indianapolis Center
Sat 02:20:27 PM 40.1264 -82.4722 97° East 455 524 35,000 49 Climbing Indianapolis Center
Sat 02:21:28 PM 40.1100 -82.3061 97° East 457 526 35,000  Level Indianapolis Center
Sat 02:22:30 PM 40.0925 -82.1383 98° East 462 532 35,000  Level Indianapolis Center
Sat 02:23:31 PM 40.0728 -81.9428 97° East 462 532 35,000  Level Indianapolis Center
Sat 02:24:33 PM 40.0550 -81.7758 98° East 462 532 35,000  Level Indianapolis Center
Sat 02:25:34 PM 40.0394 -81.6183 97° East 462 532 35,000 -195 Level Indianapolis Center
Sat 02:26:36 PM 40.0172 -81.4514 100° East 464 534 34,600 -488 Descending Indianapolis Center
Sat 02:27:37 PM 39.9933 -81.2839 100° East 467 537 34,000 -621 Descending Indianapolis Center
Sat 02:28:32 PM 39.9722 -81.1114 99° East 469 540 33,400 -522 Descending Cleveland Center
Sat 02:29:32 PM 39.9497 -80.9433 100° East 469 540 33,000 -200 Descending Cleveland Center
Sat 02:30:32 PM 39.9231 -80.7753 102° East 469 540 33,000  Level Cleveland Center
Sat 02:31:32 PM 39.8983 -80.6075 101° East 469 540 33,000  Level Cleveland Center
Sat 02:32:32 PM 39.8733 -80.4397 101° East 469 540 33,000  Level Cleveland Center
Sat 02:33:32 PM 39.8478 -80.2694 101° East 469 540 33,000  Level Cleveland Center
Sat 02:34:32 PM 39.8203 -80.1019 102° East 469 540 33,000  Level Cleveland Center
Sat 02:35:32 PM 39.7964 -79.9319 100° East 469 540 33,000  Level Cleveland Center
Sat 02:36:32 PM 39.7703 -79.7619 101° East 469 540 33,000 -361 Level Cleveland Center
Sat 02:37:45 PM 39.7378 -79.5636 102° East 486 559 32,200 -1,282 Descending Washington Center
Sat 02:38:43 PM 39.7119 -79.3950 101° East 481 554 30,200 -2,118 Descending Washington Center
Sat 02:39:44 PM 39.6861 -79.2236 101° East 481 554 28,000 -2,132 Descending Washington Center
Sat 02:40:44 PM 39.6556 -79.0578 103° East 481 554 25,900 -2,033 Descending Washington Center
Sat 02:41:45 PM 39.6225 -78.9025 105° East 475 547 23,900 -2,033 Descending Washington Center
Sat 02:42:45 PM 39.5850 -78.7392 107° East 480 552 21,800 -2,186 Descending Washington Center
Sat 02:43:43 PM 39.5517 -78.5817 105° East 473 544 19,600 -2,034 Descending Washington Center
Sat 02:44:43 PM 39.5156 -78.4297 107° East 452 520 17,800 -1,934 Descending Washington Center
Sat 02:45:44 PM 39.4836 -78.2806 105° East 437 503 15,700 -1,377 Descending Washington Center
Sat 02:46:45 PM 39.4514 -78.1367 106° East 425 489 15,000 -303 Descending Washington Center
Sat 02:47:43 PM 39.4522 -77.9889 90° East 415 478 15,100 51 Climbing Washington Center
Sat 02:48:43 PM 39.4489 -77.8464 92° East 408 470 15,100 -300 Level Washington Center
Sat 02:49:43 PM 39.4469 -77.7147 91° East 383 441 14,500 -942 Descending Washington Center
Sat 02:50:44 PM 39.4492 -77.5964 89° East 354 407 13,200 -1,250 Descending Washington Center
Sat 02:51:43 PM 39.4467 -77.4861 92° East 325 374 12,000 -1,109 Descending Washington Center
Sat 02:52:43 PM 39.4461 -77.3786 90° East 305 351 11,000 -446 Descending Washington Center
Sat 02:53:44 PM 39.4561 -77.2714 83° East 300 345 11,100 -1,145 Climbing Washington Center
Sat 02:54:33 PM 39.4833 -77.1667 71° East 295 339 8,900 -2,752 Descending Potomac TRACON
Sat 02:55:33 PM 39.4833 -77.0833 90° East 288 331 6,100 -2,400 Descending Potomac TRACON
Sat 02:56:33 PM 39.4500 -77.0000 117° Southeast 269 310 4,100 -1,550 Descending Potomac TRACON
Sat 02:57:33 PM 39.4000 -76.9167 128° Southeast 252 290 3,000 -550 Descending Potomac TRACON
Sat 02:58:33 PM 39.3667 -76.8500 123° Southeast 250 288 3,000  Level Potomac TRACON
Sat 02:59:34 PM 39.3167 -76.8000 142° Southeast 197 227 3,000  Level Potomac TRACON

Login

Don't have an account? Register now (free) for customized features, flight alerts, and more!